Time;durP1;ratioP1;P1;durP2;ratioP2;P2;SDS_P1;SDS_P2;PMS_P1;PMS_P2;Temp;Humidity;BMP_temperature;BMP_pressure;BME280_temperature;BME280_humidity;BME280_pressure;Samples;Min_cycle;Max_cycle;Signal;HPM_P1;HPM_P2
2021/05/22 00:00:47;;;;;;;3.50;3.40;;;;;;;7.84;79.37;99912.78;4425828;32;20095;-73
2021/05/22 00:03:13;;;;;;;3.40;3.30;;;;;;;7.86;79.61;99887.44;4416125;32;20137;-73
2021/05/22 00:05:38;;;;;;;3.60;3.50;;;;;;;7.91;79.85;99889.78;4430180;32;20087;-72
2021/05/22 00:08:04;;;;;;;3.35;3.25;;;;;;;7.93;79.77;99886.16;4405034;32;20110;-73
2021/05/22 00:10:29;;;;;;;3.58;3.47;;;;;;;7.90;79.53;99860.22;4419177;32;20079;-72
2021/05/22 00:12:55;;;;;;;3.50;3.40;;;;;;;7.96;79.34;99867.72;4416757;32;20092;-72
2021/05/22 00:15:20;;;;;;;3.50;3.40;;;;;;;8.00;79.42;99871.00;4430542;32;20095;-72
2021/05/22 00:17:45;;;;;;;3.78;3.67;;;;;;;8.02;78.75;99857.84;4417423;32;20088;-73
2021/05/22 00:20:12;;;;;;;3.67;3.58;;;;;;;8.01;78.61;99859.62;4422106;32;20084;-73
2021/05/22 00:22:37;;;;;;;3.55;3.45;;;;;;;8.00;78.87;99857.94;4422880;32;20072;-72
2021/05/22 00:25:06;;;;;;;3.42;3.33;;;;;;;7.98;79.16;99852.81;4410454;32;20160;-74
2021/05/22 00:27:31;;;;;;;3.60;3.50;;;;;;;7.98;78.54;99858.03;4415968;32;20533;-73
2021/05/22 00:29:56;;;;;;;3.50;3.40;;;;;;;6.84;78.78;99674.53;4406538;32;20084;-73
2021/05/22 00:32:22;;;;;;;3.50;3.40;;;;;;;7.95;79.37;99852.94;4428623;32;20867;-74
2021/05/22 00:34:47;;;;;;;3.60;3.50;;;;;;;7.98;79.07;99849.34;4415984;32;20063;-73
2021/05/22 00:37:12;;;;;;;3.60;3.50;;;;;;;8.01;79.19;99848.34;4429215;32;20137;-73
2021/05/22 00:39:38;;;;;;;3.80;3.60;;;;;;;8.00;78.84;99850.09;4427959;32;20064;-73
2021/05/22 00:42:04;;;;;;;3.42;3.33;;;;;;;8.03;78.44;99851.69;4417806;32;20064;-73
2021/05/22 00:44:31;;;;;;;3.70;3.60;;;;;;;7.73;78.78;99800.22;4412736;32;20667;-73
2021/05/22 00:46:58;;;;;;;3.60;3.50;;;;;;;8.08;78.13;99847.03;4420634;32;20958;-72
2021/05/22 00:49:23;;;;;;;3.60;3.50;;;;;;;8.11;78.42;99849.50;4414009;32;20060;-72
2021/05/22 00:51:48;;;;;;;3.60;3.50;;;;;;;8.10;78.34;99848.66;4423911;32;20088;-73
2021/05/22 00:54:14;;;;;;;4.15;3.95;;;;;;;8.04;78.39;99850.75;4415594;32;20942;-73
2021/05/22 00:56:39;;;;;;;3.70;3.60;;;;;;;8.06;78.40;99846.28;4428723;32;20084;-73
2021/05/22 00:59:04;;;;;;;3.53;3.42;;;;;;;7.88;77.82;99819.44;4414408;32;20092;-73
2021/05/22 01:01:30;;;;;;;3.72;3.62;;;;;;;8.02;78.78;99847.38;4411626;32;20068;-73
2021/05/22 01:03:55;;;;;;;3.65;3.55;;;;;;;8.02;78.28;99839.56;4410681;32;21075;-74
2021/05/22 01:06:24;;;;;;;3.40;3.30;;;;;;;8.03;77.43;99834.25;4425812;32;20072;-73
2021/05/22 01:08:59;;;;;;;3.40;3.30;;;;;;;7.99;77.76;99838.78;4440777;32;20168;-73
2021/05/22 01:11:29;;;;;;;3.30;3.20;;;;;;;7.92;78.41;99828.78;4414397;32;20090;-73
2021/05/22 01:13:58;;;;;;;3.47;3.37;;;;;;;7.93;77.53;99839.13;4413363;32;20072;-73
2021/05/22 01:16:23;;;;;;;3.60;3.50;;;;;;;7.86;78.21;99835.19;4414744;32;20068;-73
2021/05/22 01:18:49;;;;;;;3.80;3.60;;;;;;;7.87;78.59;99841.25;4421408;32;20152;-73
2021/05/22 01:21:14;;;;;;;3.40;3.30;;;;;;;7.85;78.83;99849.16;4423743;32;20095;-73
2021/05/22 01:23:48;;;;;;;3.50;3.40;;;;;;;7.82;78.64;99845.88;4417989;32;20138;-72
2021/05/22 01:26:13;;;;;;;3.40;3.30;;;;;;;7.79;78.92;99833.81;4414586;32;20103;-73
2021/05/22 01:28:39;;;;;;;3.40;3.30;;;;;;;7.81;78.57;99852.03;4412964;32;20130;-72
2021/05/22 01:31:06;;;;;;;3.60;3.50;;;;;;;7.84;78.28;99842.28;4419525;32;20072;-73
2021/05/22 01:33:32;;;;;;;3.58;3.45;;;;;;;7.83;78.82;99837.12;4413714;32;20100;-73
2021/05/22 01:35:57;;;;;;;4.10;3.90;;;;;;;7.88;78.18;99837.72;4423221;32;20078;-74
2021/05/22 01:38:22;;;;;;;3.40;3.30;;;;;;;7.93;78.23;99839.13;4409916;32;20092;-73
2021/05/22 01:40:50;;;;;;;3.42;3.33;;;;;;;7.92;77.37;99841.84;4417728;32;20091;-73
2021/05/22 01:43:15;;;;;;;3.50;3.40;;;;;;;7.89;77.22;99842.00;4412724;32;20100;-73
2021/05/22 01:45:44;;;;;;;3.60;3.50;;;;;;;7.86;77.32;99842.16;4416957;32;20056;-72
2021/05/22 01:48:11;;;;;;;3.55;3.45;;;;;;;6.96;77.39;99715.62;4414679;32;20088;-73
2021/05/22 01:50:40;;;;;;;3.60;3.50;;;;;;;7.84;76.98;99823.97;4412677;32;20073;-73
2021/05/22 01:53:07;;;;;;;3.40;3.30;;;;;;;7.88;77.54;99838.56;4410150;32;20194;-73
2021/05/22 01:55:32;;;;;;;3.60;3.50;;;;;;;7.92;76.53;99837.47;4409557;32;20076;-72
2021/05/22 01:57:57;;;;;;;3.45;3.35;;;;;;;7.92;76.82;99837.47;4436340;32;20067;-72
2021/05/22 02:00:23;;;;;;;3.50;3.40;;;;;;;7.88;76.51;99835.94;4428314;32;20096;-73
2021/05/22 02:03:11;;;;;;;3.50;3.40;;;;;;;7.85;77.21;99830.88;4417301;32;20080;-73
2021/05/22 02:05:36;;;;;;;3.35;3.25;;;;;;;7.84;77.72;99831.81;4417134;32;20096;-72
2021/05/22 02:08:02;;;;;;;3.50;3.40;;;;;;;7.76;77.57;99828.78;4421644;32;20149;-72
2021/05/22 02:10:28;;;;;;;3.50;3.40;;;;;;;7.66;78.72;99820.59;4421035;32;20073;-72
2021/05/22 02:12:54;;;;;;;3.50;3.40;;;;;;;7.60;78.87;99823.56;4427734;32;20124;-72
2021/05/22 02:15:19;;;;;;;3.62;3.53;;;;;;;7.54;78.56;99822.09;4427932;32;20720;-73
2021/05/22 02:17:45;;;;;;;3.40;3.30;;;;;;;7.50;78.68;99824.97;4411946;32;20083;-73
2021/05/22 02:20:11;;;;;;;3.45;3.35;;;;;;;7.46;78.99;99824.28;4428019;32;20099;-72
2021/05/22 02:22:41;;;;;;;4.43;4.12;;;;;;;7.44;78.79;99823.53;4410013;32;20086;-73
2021/05/22 02:25:06;;;;;;;3.37;3.28;;;;;;;7.43;78.69;99818.37;4438593;32;20076;-72
2021/05/22 02:27:32;;;;;;;3.55;3.45;;;;;;;6.88;78.76;99730.81;4418206;32;20683;-73
2021/05/22 02:29:58;;;;;;;3.83;3.62;;;;;;;7.40;78.65;99816.78;4403074;32;20186;-72
2021/05/22 02:32:23;;;;;;;3.50;3.40;;;;;;;7.39;78.37;99822.91;4418051;32;20091;-72
2021/05/22 02:34:50;;;;;;;3.37;3.28;;;;;;;7.34;78.30;99820.56;4425584;32;20854;-72
2021/05/22 02:37:19;;;;;;;3.55;3.45;;;;;;;7.33;78.33;99818.84;4420284;32;20088;-72
2021/05/22 02:39:44;;;;;;;3.50;3.40;;;;;;;7.31;78.23;99825.94;4412286;32;20108;-72
2021/05/22 02:42:10;;;;;;;3.70;3.50;;;;;;;7.35;77.97;99821.38;4414475;32;20087;-73
2021/05/22 02:44:36;;;;;;;3.40;3.30;;;;;;;7.35;78.38;99824.00;4419470;32;20081;-72
2021/05/22 02:47:02;;;;;;;3.45;3.35;;;;;;;7.33;78.46;99825.84;4434563;32;20087;-73
2021/05/22 02:49:27;;;;;;;3.40;3.30;;;;;;;7.33;78.02;99828.47;4415492;32;20133;-72
2021/05/22 02:52:00;;;;;;;3.20;3.10;;;;;;;7.41;78.35;99823.69;4410406;32;20942;-73
2021/05/22 02:54:27;;;;;;;3.35;3.25;;;;;;;7.38;78.19;99826.47;4415184;32;20072;-72
2021/05/22 02:56:53;;;;;;;3.20;3.10;;;;;;;7.38;78.22;99831.69;4410394;32;20089;-72
2021/05/22 02:59:19;;;;;;;3.40;3.30;;;;;;;7.37;78.32;99822.16;4410103;32;20096;-72
2021/05/22 03:01:44;;;;;;;3.45;3.35;;;;;;;7.34;77.69;99817.13;4425189;32;20064;-72
2021/05/22 03:04:09;;;;;;;3.35;3.25;;;;;;;7.29;78.10;99819.94;4409960;32;20150;-73
2021/05/22 03:06:35;;;;;;;3.33;3.22;;;;;;;7.23;78.37;99812.44;4422801;32;20061;-72
2021/05/22 03:09:00;;;;;;;3.47;3.37;;;;;;;7.18;77.79;99814.47;4432389;32;20076;-72
2021/05/22 03:11:26;;;;;;;3.40;3.30;;;;;;;7.15;78.97;99810.22;4409921;32;20285;-73
2021/05/22 03:13:51;;;;;;;3.40;3.30;;;;;;;7.11;78.98;99808.69;4419966;32;20146;-72
2021/05/22 03:16:16;;;;;;;3.35;3.25;;;;;;;7.11;79.22;99807.88;4415130;32;20095;-73
2021/05/22 03:18:42;;;;;;;3.42;3.33;;;;;;;7.11;78.67;99808.69;4417526;32;20087;-72
2021/05/22 03:21:07;;;;;;;3.40;3.30;;;;;;;7.10;78.72;99800.97;4412846;32;20122;-72
2021/05/22 03:23:33;;;;;;;3.40;3.30;;;;;;;7.11;78.57;99798.25;4415614;32;20620;-72
2021/05/22 03:25:58;;;;;;;4.05;3.85;;;;;;;6.75;78.76;99774.94;4401561;32;20086;-72
2021/05/22 03:28:24;;;;;;;3.28;3.17;;;;;;;7.13;79.11;99803.41;4416759;32;20067;-72
2021/05/22 03:30:49;;;;;;;3.50;3.40;;;;;;;7.19;78.98;99805.69;4413198;32;20064;-72
2021/05/22 03:33:14;;;;;;;3.20;3.10;;;;;;;7.27;78.58;99813.97;4430503;32;20669;-72
2021/05/22 03:35:40;;;;;;;3.50;3.40;;;;;;;7.39;78.07;99818.53;4408409;32;20116;-72
2021/05/22 03:38:05;;;;;;;3.50;3.40;;;;;;;7.50;78.32;99804.91;4429484;32;20068;-72
2021/05/22 03:40:30;;;;;;;3.40;3.30;;;;;;;7.56;78.12;99807.19;4417266;32;20095;-72
2021/05/22 03:42:56;;;;;;;3.37;3.28;;;;;;;7.67;77.52;99805.78;4421690;32;20924;-72
2021/05/22 03:45:21;;;;;;;3.50;3.40;;;;;;;7.75;77.11;99811.41;4416748;32;20069;-71
2021/05/22 03:47:47;;;;;;;3.50;3.40;;;;;;;7.83;77.05;99801.38;4412294;32;20495;-70
2021/05/22 03:50:12;;;;;;;3.40;3.30;;;;;;;7.92;76.94;99805.28;4426864;32;20309;-71
2021/05/22 03:52:38;;;;;;;3.60;3.50;;;;;;;7.98;76.17;99797.09;4420045;32;20837;-70
2021/05/22 03:55:04;;;;;;;3.40;3.30;;;;;;;8.04;76.53;99809.81;4425299;32;20073;-71
2021/05/22 03:57:30;;;;;;;3.40;3.30;;;;;;;8.09;75.86;99807.78;4410755;32;20168;-70
2021/05/22 03:59:55;;;;;;;3.30;3.20;;;;;;;8.15;76.26;99811.81;4409801;32;20071;-71
2021/05/22 04:02:21;;;;;;;3.40;3.30;;;;;;;8.18;75.93;99806.44;4411927;32;20080;-70
2021/05/22 04:04:46;;;;;;;3.30;3.20;;;;;;;8.19;75.43;99806.31;4404417;32;20103;-70
2021/05/22 04:07:11;;;;;;;3.40;3.30;;;;;;;8.22;75.13;99807.06;4397744;32;20072;-70
2021/05/22 04:09:37;;;;;;;3.50;3.40;;;;;;;8.22;75.99;99810.56;4397447;32;20075;-70
2021/05/22 04:12:02;;;;;;;4.15;3.95;;;;;;;8.23;75.28;99809.59;4390914;32;20076;-71
2021/05/22 04:14:27;;;;;;;3.47;3.37;;;;;;;8.31;75.75;99804.78;4405419;32;20168;-71
2021/05/22 04:16:53;;;;;;;3.60;3.50;;;;;;;8.36;75.16;99820.22;4404670;32;20361;-70
2021/05/22 04:19:18;;;;;;;3.28;3.17;;;;;;;8.38;74.91;99811.34;4400031;32;20084;-71
2021/05/22 04:21:44;;;;;;;3.40;3.30;;;;;;;8.38;74.82;99813.13;4401923;32;20534;-71
2021/05/22 04:24:09;;;;;;;3.42;3.33;;;;;;;8.41;75.46;99802.53;4402525;32;20072;-72
2021/05/22 04:26:34;;;;;;;3.40;3.30;;;;;;;8.47;74.18;99809.19;4401632;32;20069;-70
2021/05/22 04:29:00;;;;;;;3.28;3.17;;;;;;;8.56;74.80;99806.88;4402766;32;20080;-70
2021/05/22 04:31:25;;;;;;;3.40;3.30;;;;;;;8.72;73.58;99817.28;4397585;32;20150;-71
2021/05/22 04:33:51;;;;;;;3.40;3.30;;;;;;;8.83;73.40;99787.87;4395390;32;20984;-71
2021/05/22 04:36:16;;;;;;;3.33;3.22;;;;;;;9.03;72.44;99807.59;4416764;32;20076;-70
2021/05/22 04:38:41;;;;;;;3.47;3.37;;;;;;;9.13;72.57;99810.50;4392004;32;20495;-70
2021/05/22 04:41:07;;;;;;;3.40;3.30;;;;;;;9.22;71.94;99809.09;4396443;32;20138;-70
2021/05/22 04:43:32;;;;;;;3.60;3.50;;;;;;;9.27;72.20;99807.06;4412208;32;20072;-69
2021/05/22 04:45:58;;;;;;;3.60;3.50;;;;;;;9.41;70.46;99804.44;4413287;32;20614;-70
2021/05/22 04:48:23;;;;;;;3.60;3.50;;;;;;;9.52;70.68;99806.38;4391155;32;20092;-70
2021/05/22 04:50:48;;;;;;;3.70;3.60;;;;;;;9.57;70.51;99799.09;4415535;32;20069;-71
2021/05/22 04:53:14;;;;;;;3.40;3.30;;;;;;;9.58;70.01;99804.22;4406070;32;20084;-70
2021/05/22 04:55:39;;;;;;;3.50;3.40;;;;;;;9.65;69.62;99806.47;4407105;32;20192;-71
2021/05/22 04:58:05;;;;;;;3.55;3.45;;;;;;;9.70;68.70;99807.00;4409799;32;20076;-71
2021/05/22 05:00:30;;;;;;;3.70;3.60;;;;;;;9.75;69.75;99807.56;4411316;32;20522;-70
2021/05/22 05:02:56;;;;;;;3.53;3.42;;;;;;;9.83;69.24;99810.53;4411567;32;20069;-71
2021/05/22 05:05:22;;;;;;;3.50;3.40;;;;;;;9.88;68.57;99805.88;4421854;32;20155;-70
2021/05/22 05:07:47;;;;;;;3.60;3.50;;;;;;;9.97;67.24;99818.37;4417733;32;20448;-70
2021/05/22 05:10:12;;;;;;;3.55;3.45;;;;;;;10.06;67.58;99805.59;4420269;32;20083;-70
2021/05/22 05:12:38;;;;;;;3.60;3.50;;;;;;;10.14;66.89;99813.81;4413284;32;20154;-70
2021/05/22 05:15:05;;;;;;;3.53;3.42;;;;;;;10.22;66.85;99811.53;4408726;32;20162;-71
2021/05/22 05:17:30;;;;;;;3.60;3.50;;;;;;;10.32;67.52;99817.06;4410273;32;20076;-70
2021/05/22 05:19:57;;;;;;;3.60;3.50;;;;;;;10.45;66.15;99830.22;4411465;32;20672;-70
2021/05/22 05:22:23;;;;;;;3.65;3.55;;;;;;;10.56;65.43;99818.09;4410861;32;20076;-71
2021/05/22 05:24:48;;;;;;;4.22;4.03;;;;;;;10.58;66.54;99810.09;4412843;32;20064;-70
2021/05/22 05:27:13;;;;;;;3.60;3.50;;;;;;;10.63;65.52;99807.19;4418925;32;20076;-70
2021/05/22 05:29:40;;;;;;;3.60;3.50;;;;;;;10.68;65.78;99808.53;4418541;32;20075;-71
2021/05/22 05:32:09;;;;;;;3.70;3.60;;;;;;;10.81;65.04;99810.37;4407004;32;20072;-71
2021/05/22 05:34:34;;;;;;;3.72;3.62;;;;;;;10.97;65.06;99792.63;4410632;32;20092;-70
2021/05/22 05:37:00;;;;;;;3.75;3.65;;;;;;;11.23;63.49;99797.88;4405602;32;20077;-71
2021/05/22 05:39:25;;;;;;;3.70;3.60;;;;;;;11.52;62.15;99787.94;4411708;32;20073;-71
2021/05/22 05:41:50;;;;;;;4.50;4.30;;;;;;;11.41;62.40;99795.75;4424143;32;20908;-71
2021/05/22 05:44:16;;;;;;;3.70;3.60;;;;;;;11.42;62.42;99800.03;4422052;32;20143;-70
2021/05/22 05:46:41;;;;;;;3.75;3.65;;;;;;;11.38;62.49;99807.28;4412925;32;20196;-71
2021/05/22 05:49:06;;;;;;;3.67;3.58;;;;;;;11.40;62.74;99805.41;4412656;32;20119;-70
2021/05/22 05:51:32;;;;;;;3.83;3.72;;;;;;;11.52;61.26;99799.28;4427305;32;20065;-70
2021/05/22 05:53:57;;;;;;;3.72;3.62;;;;;;;11.46;61.54;99804.13;4419079;32;20926;-70
2021/05/22 05:56:23;;;;;;;4.20;4.00;;;;;;;11.41;62.78;99804.47;4414907;32;20092;-71
2021/05/22 05:58:48;;;;;;;3.80;3.70;;;;;;;11.29;63.20;99816.66;4417771;32;20114;-71
2021/05/22 06:01:14;;;;;;;4.35;4.15;;;;;;;11.30;61.39;99815.69;4410213;32;20061;-71
2021/05/22 06:03:39;;;;;;;3.75;3.65;;;;;;;11.26;62.84;99824.75;4424397;32;20089;-70
2021/05/22 06:06:05;;;;;;;4.10;3.90;;;;;;;10.92;62.99;99778.97;4421671;32;20068;-70
2021/05/22 06:08:30;;;;;;;3.80;3.70;;;;;;;11.08;62.72;99826.84;4422818;32;20107;-71
2021/05/22 06:10:57;;;;;;;3.58;3.47;;;;;;;11.04;63.62;99828.00;4412710;32;20676;-71
2021/05/22 06:13:26;;;;;;;5.07;4.87;;;;;;;10.92;64.12;99828.84;4406694;32;21083;-71
2021/05/22 06:16:00;;;;;;;3.67;3.58;;;;;;;10.91;64.11;99829.78;4427190;32;20087;-70
2021/05/22 06:18:30;;;;;;;3.62;3.53;;;;;;;10.85;63.89;99830.22;4413062;32;20088;-70
2021/05/22 06:20:56;;;;;;;3.62;3.53;;;;;;;10.90;64.36;99828.09;4413330;32;20980;-69
2021/05/22 06:23:22;;;;;;;3.70;3.60;;;;;;;10.76;63.92;99818.53;4413203;32;20180;-70
2021/05/22 06:25:47;;;;;;;3.78;3.67;;;;;;;10.81;64.62;99831.34;4409240;32;20071;-70
2021/05/22 06:28:12;;;;;;;3.70;3.60;;;;;;;10.77;63.62;99825.47;4409268;32;20089;-70
2021/05/22 06:30:38;;;;;;;3.70;3.60;;;;;;;10.74;64.46;99826.53;4416704;32;20812;-70
2021/05/22 06:33:03;;;;;;;4.00;3.80;;;;;;;10.73;63.72;99832.69;4407388;32;20150;-70
2021/05/22 06:35:29;;;;;;;4.10;3.90;;;;;;;10.75;63.10;99827.34;4411105;32;20084;-71
2021/05/22 06:37:54;;;;;;;4.30;4.10;;;;;;;10.82;64.37;99838.28;4413957;32;20083;-70
2021/05/22 06:40:19;;;;;;;3.70;3.60;;;;;;;10.86;63.73;99830.09;4420308;32;20073;-71
2021/05/22 06:42:45;;;;;;;4.18;3.97;;;;;;;10.92;61.62;99827.03;4411119;32;20111;-71
2021/05/22 06:45:14;;;;;;;3.60;3.50;;;;;;;10.97;62.73;99839.88;4416595;32;20069;-71
2021/05/22 06:47:40;;;;;;;3.60;3.50;;;;;;;10.96;61.65;99831.16;4417723;32;20068;-71
2021/05/22 06:50:05;;;;;;;3.62;3.53;;;;;;;10.94;62.39;99829.56;4426223;32;20952;-71
2021/05/22 06:52:31;;;;;;;3.62;3.53;;;;;;;11.05;61.41;99834.13;4413137;32;20091;-70
2021/05/22 06:54:56;;;;;;;3.60;3.50;;;;;;;10.99;62.59;99838.00;4414297;32;20087;-70
2021/05/22 06:57:22;;;;;;;3.60;3.50;;;;;;;11.02;62.58;99832.50;4420330;32;20068;-72
2021/05/22 06:59:47;;;;;;;4.10;3.90;;;;;;;11.09;62.49;99843.47;4420462;32;20681;-71
2021/05/22 07:02:12;;;;;;;3.70;3.60;;;;;;;11.02;63.41;99842.19;4400892;32;20108;-70
2021/05/22 07:04:38;;;;;;;3.70;3.60;;;;;;;11.02;62.99;99842.19;4426306;32;20065;-70
2021/05/22 07:07:05;;;;;;;3.65;3.55;;;;;;;11.06;63.45;99860.25;4425075;32;20885;-72
2021/05/22 07:09:30;;;;;;;3.70;3.60;;;;;;;11.08;64.01;99850.47;4429900;32;20903;-71
2021/05/22 07:11:56;;;;;;;3.75;3.65;;;;;;;11.03;63.16;99859.62;4410959;32;20079;-73
2021/05/22 07:14:21;;;;;;;5.15;4.95;;;;;;;11.06;66.32;99860.25;4425661;32;20387;-71
2021/05/22 07:16:46;;;;;;;3.80;3.70;;;;;;;11.05;66.10;99863.00;4417048;32;20083;-71
2021/05/22 07:19:12;;;;;;;4.40;4.20;;;;;;;10.85;65.85;99859.91;4427663;32;20714;-71
2021/05/22 07:21:38;;;;;;;4.00;3.80;;;;;;;10.82;67.23;99862.72;4427241;32;20069;-71
2021/05/22 07:24:03;;;;;;;3.60;3.50;;;;;;;10.84;66.45;99866.09;4419722;32;20094;-72
2021/05/22 07:26:29;;;;;;;3.58;3.47;;;;;;;10.77;68.66;99867.47;4415422;32;20562;-71
2021/05/22 07:28:55;;;;;;;3.80;3.70;;;;;;;10.73;67.60;99866.81;4425346;32;20153;-72
2021/05/22 07:31:20;;;;;;;3.83;3.72;;;;;;;10.68;68.68;99871.50;4415283;32;20102;-72
2021/05/22 07:33:46;;;;;;;4.10;3.90;;;;;;;10.72;67.11;99878.28;4411352;32;20072;-71
2021/05/22 07:36:11;;;;;;;3.60;3.50;;;;;;;10.72;67.73;99880.03;4422681;32;20111;-71
2021/05/22 07:38:37;;;;;;;3.50;3.40;;;;;;;10.72;67.21;99887.91;4418099;32;20190;-71
2021/05/22 07:41:03;;;;;;;3.58;3.47;;;;;;;10.81;68.21;99875.97;4418599;32;20107;-72
2021/05/22 07:43:28;;;;;;;3.50;3.40;;;;;;;10.81;65.78;99883.84;4431502;32;20880;-73
2021/05/22 07:45:57;;;;;;;3.50;3.40;;;;;;;10.85;67.77;99893.19;4411839;32;20141;-72
2021/05/22 07:48:23;;;;;;;3.60;3.50;;;;;;;10.92;67.78;99895.28;4416818;32;20072;-73
2021/05/22 07:50:48;;;;;;;3.90;3.75;;;;;;;10.93;68.71;99890.91;4410834;32;20104;-72
2021/05/22 07:53:13;;;;;;;3.60;3.50;;;;;;;10.89;68.82;99892.06;4408065;32;20083;-72
2021/05/22 07:55:39;;;;;;;4.40;4.20;;;;;;;10.87;69.42;99886.91;4426183;32;21033;-73
2021/05/22 07:58:04;;;;;;;3.70;3.60;;;;;;;10.87;69.05;99896.56;4412900;32;20081;-73
2021/05/22 08:00:29;;;;;;;3.60;3.50;;;;;;;10.81;69.86;99884.69;4414847;32;20080;-72
2021/05/22 08:02:55;;;;;;;3.60;3.50;;;;;;;10.72;68.29;99899.25;4416555;32;20090;-71
2021/05/22 08:05:20;;;;;;;3.67;3.58;;;;;;;10.73;69.19;99887.81;4412867;32;20076;-72
2021/05/22 08:07:45;;;;;;;3.97;3.80;;;;;;;10.71;68.62;99900.19;4418123;32;20138;-72
2021/05/22 08:10:13;;;;;;;3.60;3.50;;;;;;;10.80;68.37;99887.41;4422846;32;20083;-72
2021/05/22 08:12:39;;;;;;;3.70;3.60;;;;;;;10.87;67.10;99888.69;4422619;32;20807;-72
2021/05/22 08:15:05;;;;;;;4.03;3.87;;;;;;;10.72;67.42;99841.53;4429899;32;20076;-73
2021/05/22 08:17:30;;;;;;;3.60;3.50;;;;;;;11.11;65.92;99892.28;4426389;32;20095;-71
2021/05/22 08:19:56;;;;;;;3.53;3.42;;;;;;;11.25;66.34;99898.41;4430100;32;20097;-72
2021/05/22 08:22:21;;;;;;;4.00;3.80;;;;;;;11.42;66.25;99902.50;4426084;32;20064;-74
2021/05/22 08:24:46;;;;;;;3.55;3.45;;;;;;;11.60;65.11;99900.41;4423706;32;20863;-74
2021/05/22 08:27:12;;;;;;;3.70;3.60;;;;;;;11.53;63.99;99886.84;4427746;32;20067;-74
2021/05/22 08:29:38;;;;;;;3.80;3.70;;;;;;;11.56;64.72;99891.88;4413923;32;20848;-71
2021/05/22 08:32:03;;;;;;;5.15;4.43;;;;;;;11.57;64.50;99901.47;4422850;32;20067;-72
2021/05/22 08:34:29;;;;;;;3.83;3.72;;;;;;;11.56;65.34;99897.13;4435545;32;20569;-73
2021/05/22 08:36:54;;;;;;;3.65;3.55;;;;;;;11.58;64.40;99900.50;4431871;32;20072;-72
2021/05/22 08:39:20;;;;;;;3.80;3.70;;;;;;;11.55;65.16;99898.94;4412037;32;20072;-72
2021/05/22 08:41:45;;;;;;;4.35;4.15;;;;;;;11.55;65.01;99898.09;4426570;32;20071;-72
2021/05/22 08:44:11;;;;;;;3.92;3.72;;;;;;;11.55;64.04;99891.03;4415024;32;20076;-72
2021/05/22 08:46:36;;;;;;;4.00;3.80;;;;;;;11.61;64.28;99902.91;4425986;32;20078;-73
2021/05/22 08:49:01;;;;;;;4.00;3.80;;;;;;;11.64;64.21;99897.44;4409877;32;20383;-72
2021/05/22 08:51:27;;;;;;;3.95;3.70;;;;;;;11.73;64.31;99914.38;4422262;32;20889;-72
2021/05/22 08:53:52;;;;;;;3.55;3.45;;;;;;;11.78;62.79;99905.19;4407688;32;20114;-72
2021/05/22 08:56:17;;;;;;;3.65;3.55;;;;;;;11.90;63.82;99906.16;4416662;32;20057;-74
2021/05/22 08:58:43;;;;;;;3.80;3.70;;;;;;;11.89;62.34;99909.75;4431775;32;20083;-73
2021/05/22 09:01:09;;;;;;;3.70;3.60;;;;;;;12.06;63.08;99915.59;4413074;32;20102;-73
2021/05/22 09:03:34;;;;;;;4.07;3.87;;;;;;;12.25;62.45;99918.63;4425442;32;20079;-73
2021/05/22 09:05:59;;;;;;;3.90;3.80;;;;;;;12.10;61.71;99903.91;4423776;32;20772;-73
2021/05/22 09:08:25;;;;;;;4.53;4.32;;;;;;;12.12;61.48;99918.63;4440445;32;20128;-71
2021/05/22 09:10:52;;;;;;;3.70;3.60;;;;;;;12.02;62.18;99912.34;4416499;32;20080;-69
2021/05/22 09:13:24;;;;;;;3.80;3.70;;;;;;;12.10;61.86;99917.91;4421354;32;20752;-75
2021/05/22 09:15:54;;;;;;;3.80;3.70;;;;;;;12.17;61.89;99918.31;4435847;32;20090;-73
2021/05/22 09:18:21;;;;;;;3.70;3.60;;;;;;;12.22;61.71;99924.09;4416167;32;20184;-73
2021/05/22 09:20:51;;;;;;;4.10;3.90;;;;;;;12.23;61.54;99912.63;4411674;32;20068;-73
2021/05/22 09:23:20;;;;;;;3.80;3.70;;;;;;;12.06;61.15;99919.06;4421473;32;20100;-73
2021/05/22 09:25:54;;;;;;;3.90;3.80;;;;;;;12.12;61.54;99923.06;4411381;32;20087;-74
2021/05/22 09:28:27;;;;;;;3.78;3.67;;;;;;;12.06;62.10;99926.13;4416329;32;20076;-74
2021/05/22 09:30:52;;;;;;;3.80;3.70;;;;;;;11.96;62.82;99918.03;4409942;32;20080;-72
2021/05/22 09:33:20;;;;;;;3.67;3.58;;;;;;;11.91;62.89;99934.16;4424563;32;20157;-71
2021/05/22 09:35:54;;;;;;;3.78;3.67;;;;;;;11.85;63.39;99918.78;4408517;32;20065;-71
2021/05/22 09:38:20;;;;;;;3.70;3.60;;;;;;;11.89;63.14;99922.06;4421497;32;20072;-73
2021/05/22 09:40:46;;;;;;;3.80;3.70;;;;;;;11.91;62.34;99941.22;4417232;32;20091;-73
2021/05/22 09:43:11;;;;;;;3.80;3.70;;;;;;;11.82;62.96;99940.00;4409935;32;20133;-75
2021/05/22 09:45:41;;;;;;;4.15;3.95;;;;;;;11.75;62.81;99944.84;4404464;32;20076;-76
2021/05/22 09:48:17;;;;;;;3.65;3.55;;;;;;;11.76;62.19;99930.75;4414521;32;20915;-70
2021/05/22 09:50:47;;;;;;;3.80;3.70;;;;;;;11.88;62.15;99947.47;4423756;32;20080;-69
2021/05/22 09:53:38;;;;;;;3.78;3.67;;;;;;;11.84;62.51;99943.38;4428041;32;20080;-70
2021/05/22 09:56:08;;;;;;;3.70;3.60;;;;;;;11.81;62.80;99937.47;4442144;32;20076;-71
2021/05/22 09:58:40;;;;;;;3.60;3.50;;;;;;;11.83;62.78;99946.13;4422982;32;20152;-73
2021/05/22 10:01:06;;;;;;;3.65;3.55;;;;;;;11.84;62.35;99947.78;4427273;32;20076;-70
2021/05/22 10:03:31;;;;;;;3.75;3.65;;;;;;;11.89;63.47;99959.72;4416848;32;20606;-69
2021/05/22 10:05:56;;;;;;;3.70;3.60;;;;;;;11.85;63.91;99955.59;4429342;32;21068;-70
2021/05/22 10:08:22;;;;;;;3.70;3.60;;;;;;;11.88;64.02;99954.53;4417955;32;20142;-74
2021/05/22 10:10:49;;;;;;;4.00;3.80;;;;;;;11.83;64.81;99957.47;4419980;32;20072;-79
2021/05/22 10:13:16;;;;;;;3.80;3.70;;;;;;;11.77;64.98;99960.53;4427559;32;20094;-75
2021/05/22 10:15:46;;;;;;;3.80;3.70;;;;;;;11.71;66.01;99963.59;4419549;32;20075;-71
2021/05/22 10:18:12;;;;;;;4.10;3.90;;;;;;;11.75;64.83;99965.06;4412416;32;20817;-72
2021/05/22 10:20:37;;;;;;;3.80;3.70;;;;;;;11.81;64.39;99954.13;4415657;32;20075;-71
2021/05/22 10:23:03;;;;;;;3.70;3.60;;;;;;;11.78;64.38;99975.34;4415104;32;20087;-72
2021/05/22 10:25:28;;;;;;;4.12;3.92;;;;;;;11.99;64.38;99970.44;4424078;32;20546;-72
2021/05/22 10:27:54;;;;;;;3.70;3.60;;;;;;;12.11;63.64;99974.00;4411171;32;20076;-73
2021/05/22 10:30:19;;;;;;;3.62;3.53;;;;;;;12.38;62.91;99974.66;4419711;32;20202;-73
2021/05/22 10:32:45;;;;;;;3.90;3.80;;;;;;;12.44;63.08;99972.53;4425325;32;20848;-71
2021/05/22 10:35:15;;;;;;;3.78;3.67;;;;;;;12.46;61.96;99974.09;4414564;32;20072;-72
2021/05/22 10:37:48;;;;;;;4.07;3.87;;;;;;;12.49;60.73;99994.97;4414452;32;20856;-74
2021/05/22 10:40:15;;;;;;;3.75;3.65;;;;;;;12.58;61.83;99978.47;4438212;32;20080;-71
2021/05/22 10:42:55;;;;;;;4.00;3.80;;;;;;;12.71;60.04;99993.41;4418645;32;20978;-71
2021/05/22 10:45:23;;;;;;;4.00;3.80;;;;;;;12.78;60.16;99984.94;4417860;32;20771;-71
2021/05/22 10:47:49;;;;;;;3.95;3.80;;;;;;;12.91;59.95;100005.09;4440787;32;20184;-71
2021/05/22 10:50:35;;;;;;;3.60;3.50;;;;;;;13.15;59.44;99992.78;4418238;32;20077;-71
2021/05/22 10:53:23;;;;;;;3.80;3.70;;;;;;;13.22;58.82;99995.78;4428579;32;20153;-73
2021/05/22 10:56:15;;;;;;;3.70;3.60;;;;;;;13.41;59.63;100012.88;4435318;32;20118;-72
2021/05/22 10:58:59;;;;;;;4.10;3.90;;;;;;;13.62;57.77;100007.81;4427751;32;20141;-72
2021/05/22 11:01:24;;;;;;;4.20;4.00;;;;;;;13.87;57.92;100004.13;4435972;32;20707;-72
2021/05/22 11:04:06;;;;;;;4.07;3.87;;;;;;;14.00;57.25;100006.66;4441665;32;20080;-71
2021/05/22 11:06:57;;;;;;;4.10;3.90;;;;;;;14.12;56.49;100016.25;4441730;32;20095;-71
2021/05/22 11:09:25;;;;;;;4.05;3.85;;;;;;;14.25;55.90;100008.22;4437395;32;20068;-71
2021/05/22 11:11:57;;;;;;;4.30;4.10;;;;;;;14.61;56.35;100015.03;4444775;32;20096;-70
2021/05/22 11:14:36;;;;;;;4.10;3.90;;;;;;;15.03;55.13;100009.87;4418461;32;20612;-71
2021/05/22 11:17:22;;;;;;;4.22;4.03;;;;;;;15.32;53.95;100006.66;4431535;32;20103;-70
2021/05/22 11:20:06;;;;;;;4.18;3.97;;;;;;;15.52;53.17;100010.28;4438660;32;20712;-71
2021/05/22 11:23:02;;;;;;;4.20;4.00;;;;;;;15.48;53.49;100016.81;4450886;32;20150;-70
2021/05/22 11:25:52;;;;;;;4.37;4.18;;;;;;;15.29;53.00;100001.62;4454822;32;20079;-71
2021/05/22 11:28:21;;;;;;;4.18;3.97;;;;;;;14.94;54.46;100015.94;4431777;32;20068;-70
2021/05/22 11:30:50;;;;;;;4.20;4.00;;;;;;;14.31;55.42;100021.78;4415794;32;20096;-70
2021/05/22 11:33:22;;;;;;;4.25;4.05;;;;;;;14.10;56.88;100032.19;4413314;32;20134;-70
2021/05/22 11:35:56;;;;;;;4.35;4.15;;;;;;;14.08;56.04;100020.09;4441284;32;20099;-70